aviador You're here:

KPGV Decoded Metar

PITT GREENVILLE in NC, USA
Report Time2018-07-18 20:30:00
UTC Time2018-07-18 20:23:10
Flight Rules vfr VFR
Wind050° at 05 Gusting to 09 kt
W.Decomp.*RWY 08: 4.7 kt HW 1.8 kt LCW
RWY 02: 3.9 kt HW 3.1 kt RCW
RWY 33: 0.1 kt HW 5.0 kt RCW
W.Rank050° ranks 14
Current wind is below 050° avg. (6.4)
Visibility9999 m
Phenomena:N/A
Clouds:N/A
Expected CloudBase > 6,000 ft AGL from Temp-Dew spread
CeilingNone
Temp32°C (ISA +17)
Dew Point17°C (41% RH)
Heat Index32.5°C
QNH1014 hPa
Density Alt2,198 ft
Elevation26 ft
Report Wrong Elevation
Raw Report
KPGV 182030Z AUTO 05005G09KT 10SM CLR 32/17 A2993 RMK AO2=

Extra information for KPGV:More info

Metar Taf Metar & Taf Last 4 Metars F.Rules Stats Wind Profile Meteogram Temp Stats Airport Information Weather charts Add Link Nearby VenuesMetar ALERT Operation Metar Decoded Social comments

AIRNAV info for KPGV